sensor_id;sensor_type;location;lat;lon;timestamp;pressure;altitude;pressure_sealevel;temperature;humidity
11692;BME280;33659;42.672;23.354;2022-12-07T00:02:15;94332.28;;;8.44;72.83
11692;BME280;33659;42.672;23.354;2022-12-07T00:04:41;94340.25;;;8.39;72.54
11692;BME280;33659;42.672;23.354;2022-12-07T00:07:08;94342.38;;;8.37;72.92
11692;BME280;33659;42.672;23.354;2022-12-07T00:09:35;94329.69;;;8.35;72.80
11692;BME280;33659;42.672;23.354;2022-12-07T00:12:01;94336.59;;;8.23;73.02
11692;BME280;33659;42.672;23.354;2022-12-07T00:14:32;94323.22;;;8.03;73.69
11692;BME280;33659;42.672;23.354;2022-12-07T00:16:59;94328.16;;;7.87;74.24
11692;BME280;33659;42.672;23.354;2022-12-07T00:19:26;94327.88;;;7.72;75.07
11692;BME280;33659;42.672;23.354;2022-12-07T00:21:53;94328.56;;;7.43;76.44
11692;BME280;33659;42.672;23.354;2022-12-07T00:24:19;94316.03;;;7.19;77.49
11692;BME280;33659;42.672;23.354;2022-12-07T00:26:46;94317.41;;;6.99;78.53
11692;BME280;33659;42.672;23.354;2022-12-07T00:29:16;94327.50;;;6.83;79.17
11692;BME280;33659;42.672;23.354;2022-12-07T00:31:45;94308.06;;;6.63;79.71
11692;BME280;33659;42.672;23.354;2022-12-07T00:34:13;94317.38;;;6.73;80.26
11692;BME280;33659;42.672;23.354;2022-12-07T00:36:40;94303.94;;;6.62;80.69
11692;BME280;33659;42.672;23.354;2022-12-07T00:39:07;94333.41;;;6.75;80.72
11692;BME280;33659;42.672;23.354;2022-12-07T00:41:34;94332.97;;;6.82;80.74
11692;BME280;33659;42.672;23.354;2022-12-07T00:44:01;94330.22;;;6.87;79.83
11692;BME280;33659;42.672;23.354;2022-12-07T00:46:29;94319.09;;;6.86;79.80
11692;BME280;33659;42.672;23.354;2022-12-07T00:48:57;94322.63;;;6.90;79.41
11692;BME280;33659;42.672;23.354;2022-12-07T00:51:25;94327.03;;;6.98;79.41
11692;BME280;33659;42.672;23.354;2022-12-07T00:53:52;94315.28;;;7.10;79.19
11692;BME280;33659;42.672;23.354;2022-12-07T00:56:21;94315.44;;;7.22;78.86
11692;BME280;33659;42.672;23.354;2022-12-07T00:58:52;94320.47;;;7.36;78.30
11692;BME280;33659;42.672;23.354;2022-12-07T01:01:19;94318.78;;;7.48;78.17
11692;BME280;33659;42.672;23.354;2022-12-07T01:03:46;94318.91;;;7.60;77.13
11692;BME280;33659;42.672;23.354;2022-12-07T01:06:15;94319.00;;;7.73;77.14
11692;BME280;33659;42.672;23.354;2022-12-07T01:08:42;94319.00;;;7.81;76.26
11692;BME280;33659;42.672;23.354;2022-12-07T01:11:12;94314.41;;;7.87;76.05
11692;BME280;33659;42.672;23.354;2022-12-07T01:13:39;94314.41;;;7.87;75.85
11692;BME280;33659;42.672;23.354;2022-12-07T01:16:06;94320.97;;;7.93;75.70
11692;BME280;33659;42.672;23.354;2022-12-07T01:18:35;94313.88;;;8.02;75.33
11692;BME280;33659;42.672;23.354;2022-12-07T01:21:04;94311.56;;;8.09;75.39
11692;BME280;33659;42.672;23.354;2022-12-07T01:23:33;94301.44;;;8.17;74.78
11692;BME280;33659;42.672;23.354;2022-12-07T01:26:03;94302.47;;;8.24;74.27
11692;BME280;33659;42.672;23.354;2022-12-07T01:28:30;94302.28;;;8.29;74.27
11692;BME280;33659;42.672;23.354;2022-12-07T01:30:58;94298.31;;;8.32;74.18
11692;BME280;33659;42.672;23.354;2022-12-07T01:33:27;94297.41;;;8.36;73.98
11692;BME280;33659;42.672;23.354;2022-12-07T01:35:54;94300.16;;;8.40;73.79
11692;BME280;33659;42.672;23.354;2022-12-07T01:38:21;94302.56;;;8.45;73.43
11692;BME280;33659;42.672;23.354;2022-12-07T01:40:54;94300.41;;;8.47;73.62
11692;BME280;33659;42.672;23.354;2022-12-07T01:43:22;94258.75;;;8.18;73.57
11692;BME280;33659;42.672;23.354;2022-12-07T01:45:50;94305.03;;;8.41;73.88
11692;BME280;33659;42.672;23.354;2022-12-07T01:48:19;94304.53;;;8.48;73.62
11692;BME280;33659;42.672;23.354;2022-12-07T01:50:48;94300.41;;;8.47;73.22
11692;BME280;33659;42.672;23.354;2022-12-07T01:53:17;94304.34;;;8.53;72.95
11692;BME280;33659;42.672;23.354;2022-12-07T01:55:47;94293.94;;;8.53;73.18
11692;BME280;33659;42.672;23.354;2022-12-07T01:58:17;94294.84;;;8.57;72.81
11692;BME280;33659;42.672;23.354;2022-12-07T02:00:44;94291.66;;;8.52;73.08
11692;BME280;33659;42.672;23.354;2022-12-07T02:03:13;94290.19;;;8.33;73.58
11692;BME280;33659;42.672;23.354;2022-12-07T02:05:42;94281.72;;;8.15;74.01
11692;BME280;33659;42.672;23.354;2022-12-07T02:08:10;94279.00;;;8.03;74.69
11692;BME280;33659;42.672;23.354;2022-12-07T02:10:38;94276.31;;;7.91;75.29
11692;BME280;33659;42.672;23.354;2022-12-07T02:13:08;94281.69;;;7.77;75.42
11692;BME280;33659;42.672;23.354;2022-12-07T02:15:45;94286.31;;;7.72;76.00
11692;BME280;33659;42.672;23.354;2022-12-07T02:18:20;94281.09;;;7.72;76.28
11692;BME280;33659;42.672;23.354;2022-12-07T02:20:56;94287.81;;;7.73;76.37
11692;BME280;33659;42.672;23.354;2022-12-07T02:23:48;94279.69;;;7.83;76.28
11692;BME280;33659;42.672;23.354;2022-12-07T02:26:39;94286.25;;;7.89;76.05
11692;BME280;33659;42.672;23.354;2022-12-07T02:29:14;94282.41;;;7.95;75.76
11692;BME280;33659;42.672;23.354;2022-12-07T02:31:46;94279.97;;;7.99;75.29
11692;BME280;33659;42.672;23.354;2022-12-07T02:34:21;94266.81;;;7.95;75.48
11692;BME280;33659;42.672;23.354;2022-12-07T02:36:54;94265.78;;;7.87;75.60
11692;BME280;33659;42.672;23.354;2022-12-07T02:39:29;94261.50;;;7.83;76.17
11692;BME280;33659;42.672;23.354;2022-12-07T02:42:01;94263.66;;;7.81;75.82
11692;BME280;33659;42.672;23.354;2022-12-07T02:44:31;94271.91;;;7.83;76.10
11692;BME280;33659;42.672;23.354;2022-12-07T02:47:02;94274.34;;;7.88;75.77
11692;BME280;33659;42.672;23.354;2022-12-07T02:49:30;94277.38;;;7.90;75.97
11692;BME280;33659;42.672;23.354;2022-12-07T02:51:57;94264.84;;;7.92;75.89
11692;BME280;33659;42.672;23.354;2022-12-07T02:54:23;94264.66;;;7.97;75.73
11692;BME280;33659;42.672;23.354;2022-12-07T02:56:53;94263.41;;;8.03;75.20
11692;BME280;33659;42.672;23.354;2022-12-07T02:59:32;94262.97;;;8.01;74.93
11692;BME280;33659;42.672;23.354;2022-12-07T03:02:12;94262.69;;;7.94;74.88
11692;BME280;33659;42.672;23.354;2022-12-07T03:04:52;94257.81;;;7.84;75.85
11692;BME280;33659;42.672;23.354;2022-12-07T03:07:30;94255.28;;;7.75;75.96
11692;BME280;33659;42.672;23.354;2022-12-07T03:10:03;94257.59;;;7.68;76.23
11692;BME280;33659;42.672;23.354;2022-12-07T03:12:42;94241.59;;;7.49;76.82
11692;BME280;33659;42.672;23.354;2022-12-07T03:15:14;94240.38;;;7.38;77.72
11692;BME280;33659;42.672;23.354;2022-12-07T03:17:46;94245.31;;;7.30;78.19
11692;BME280;33659;42.672;23.354;2022-12-07T03:20:16;94241.50;;;7.28;78.87
11692;BME280;33659;42.672;23.354;2022-12-07T03:22:44;94246.97;;;7.35;78.59
11692;BME280;33659;42.672;23.354;2022-12-07T03:25:15;94241.44;;;7.45;78.18
11692;BME280;33659;42.672;23.354;2022-12-07T03:27:45;94239.59;;;7.54;77.67
11692;BME280;33659;42.672;23.354;2022-12-07T03:30:17;94239.72;;;7.58;77.57
11692;BME280;33659;42.672;23.354;2022-12-07T03:32:49;94248.28;;;7.67;77.51
11692;BME280;33659;42.672;23.354;2022-12-07T03:35:20;94252.66;;;7.75;76.99
11692;BME280;33659;42.672;23.354;2022-12-07T03:37:53;94250.78;;;7.84;76.49
11692;BME280;33659;42.672;23.354;2022-12-07T03:40:24;94254.91;;;7.94;76.37
11692;BME280;33659;42.672;23.354;2022-12-07T03:42:53;94250.28;;;8.00;75.97
11692;BME280;33659;42.672;23.354;2022-12-07T03:45:29;94246.72;;;8.04;75.61
11692;BME280;33659;42.672;23.354;2022-12-07T03:48:03;94245.03;;;8.08;75.15
11692;BME280;33659;42.672;23.354;2022-12-07T03:50:38;94252.97;;;8.12;74.97
11692;BME280;33659;42.672;23.354;2022-12-07T03:53:12;94248.97;;;8.14;74.79
11692;BME280;33659;42.672;23.354;2022-12-07T03:55:42;94228.22;;;8.06;74.85
11692;BME280;33659;42.672;23.354;2022-12-07T03:58:12;94237.66;;;8.19;74.45
11692;BME280;33659;42.672;23.354;2022-12-07T04:00:43;94239.91;;;8.21;74.46
11692;BME280;33659;42.672;23.354;2022-12-07T04:03:11;94236.13;;;8.18;74.34
11692;BME280;33659;42.672;23.354;2022-12-07T04:05:38;94235.22;;;8.14;74.48
11692;BME280;33659;42.672;23.354;2022-12-07T04:08:05;94247.47;;;8.13;74.51
11692;BME280;33659;42.672;23.354;2022-12-07T04:10:32;94243.34;;;8.12;74.23
11692;BME280;33659;42.672;23.354;2022-12-07T04:12:59;94235.84;;;8.11;74.26
11692;BME280;33659;42.672;23.354;2022-12-07T04:15:25;94241.72;;;7.99;74.08
11692;BME280;33659;42.672;23.354;2022-12-07T04:17:53;94232.41;;;7.90;74.69
11692;BME280;33659;42.672;23.354;2022-12-07T04:20:21;94225.38;;;7.90;75.05
11692;BME280;33659;42.672;23.354;2022-12-07T04:22:48;94229.06;;;7.89;74.81
11692;BME280;33659;42.672;23.354;2022-12-07T04:25:15;94233.50;;;7.88;74.88
11692;BME280;33659;42.672;23.354;2022-12-07T04:27:41;94241.75;;;7.91;75.07
11692;BME280;33659;42.672;23.354;2022-12-07T04:30:09;94242.66;;;7.95;74.88
11692;BME280;33659;42.672;23.354;2022-12-07T04:32:36;94237.56;;;7.98;74.71
11692;BME280;33659;42.672;23.354;2022-12-07T04:35:05;94243.69;;;8.02;74.65
11692;BME280;33659;42.672;23.354;2022-12-07T04:37:32;94245.66;;;8.05;74.31
11692;BME280;33659;42.672;23.354;2022-12-07T04:39:58;94243.94;;;8.09;74.02
11692;BME280;33659;42.672;23.354;2022-12-07T04:42:25;94240.91;;;8.07;73.78
11692;BME280;33659;42.672;23.354;2022-12-07T04:44:52;94247.47;;;8.05;74.10
11692;BME280;33659;42.672;23.354;2022-12-07T04:47:18;94251.16;;;8.04;74.32
11692;BME280;33659;42.672;23.354;2022-12-07T04:49:45;94253.97;;;7.99;74.57
11692;BME280;33659;42.672;23.354;2022-12-07T04:52:13;94256.25;;;8.00;74.43
11692;BME280;33659;42.672;23.354;2022-12-07T04:54:40;94251.03;;;8.00;74.62
11692;BME280;33659;42.672;23.354;2022-12-07T04:57:06;94247.22;;;7.98;74.30
11692;BME280;33659;42.672;23.354;2022-12-07T04:59:33;94248.44;;;8.00;74.20
11692;BME280;33659;42.672;23.354;2022-12-07T05:02:00;94248.13;;;8.02;74.30
11692;BME280;33659;42.672;23.354;2022-12-07T05:04:27;94245.19;;;8.03;74.36
11692;BME280;33659;42.672;23.354;2022-12-07T05:06:53;94251.38;;;7.99;74.25
11692;BME280;33659;42.672;23.354;2022-12-07T05:09:21;94251.66;;;7.97;74.48
11692;BME280;33659;42.672;23.354;2022-12-07T05:11:48;94252.56;;;8.01;74.28
11692;BME280;33659;42.672;23.354;2022-12-07T05:14:16;94259.28;;;8.02;74.10
11692;BME280;33659;42.672;23.354;2022-12-07T05:16:45;94251.03;;;8.00;73.88
11692;BME280;33659;42.672;23.354;2022-12-07T05:19:12;94256.25;;;8.00;73.89
11692;BME280;33659;42.672;23.354;2022-12-07T05:21:40;94254.41;;;8.01;73.80
11692;BME280;33659;42.672;23.354;2022-12-07T05:24:08;94249.53;;;7.99;73.91
11692;BME280;33659;42.672;23.354;2022-12-07T05:26:37;94240.31;;;8.02;74.10
11692;BME280;33659;42.672;23.354;2022-12-07T05:29:04;94248.72;;;8.07;73.96
11692;BME280;33659;42.672;23.354;2022-12-07T05:31:30;94244.13;;;8.04;73.63
11692;BME280;33659;42.672;23.354;2022-12-07T05:33:57;94254.34;;;8.09;73.55
11692;BME280;33659;42.672;23.354;2022-12-07T05:36:24;94251.16;;;8.12;73.67
11692;BME280;33659;42.672;23.354;2022-12-07T05:38:51;94243.41;;;7.95;73.76
11692;BME280;33659;42.672;23.354;2022-12-07T05:41:18;94251.38;;;7.99;73.98
11692;BME280;33659;42.672;23.354;2022-12-07T05:44:04;94238.47;;;8.02;73.86
11692;BME280;33659;42.672;23.354;2022-12-07T05:46:30;94248.88;;;8.02;74.06
11692;BME280;33659;42.672;23.354;2022-12-07T05:48:57;94243.06;;;8.05;74.00
11692;BME280;33659;42.672;23.354;2022-12-07T05:51:24;94246.13;;;8.07;73.67
11692;BME280;33659;42.672;23.354;2022-12-07T05:53:50;94240.75;;;8.04;73.75
11692;BME280;33659;42.672;23.354;2022-12-07T05:56:17;94233.28;;;8.02;73.49
11692;BME280;33659;42.672;23.354;2022-12-07T05:58:44;94238.84;;;7.92;74.06
11692;BME280;33659;42.672;23.354;2022-12-07T06:01:30;94237.31;;;7.91;74.16
11692;BME280;33659;42.672;23.354;2022-12-07T06:03:56;94204.53;;;7.69;74.44
11692;BME280;33659;42.672;23.354;2022-12-07T06:06:23;94244.06;;;7.92;74.24
11692;BME280;33659;42.672;23.354;2022-12-07T06:08:50;94238.38;;;7.90;74.35
11692;BME280;33659;42.672;23.354;2022-12-07T06:11:16;94243.41;;;7.95;74.23
11692;BME280;33659;42.672;23.354;2022-12-07T06:14:01;94236.53;;;7.99;74.31
11692;BME280;33659;42.672;23.354;2022-12-07T06:16:27;94243.25;;;8.00;74.46
11692;BME280;33659;42.672;23.354;2022-12-07T06:18:55;94242.78;;;7.98;74.44
11692;BME280;33659;42.672;23.354;2022-12-07T06:21:22;94242.91;;;8.02;74.31
11692;BME280;33659;42.672;23.354;2022-12-07T06:23:51;94247.47;;;8.05;74.05
11692;BME280;33659;42.672;23.354;2022-12-07T06:26:17;94246.13;;;8.07;74.07
11692;BME280;33659;42.672;23.354;2022-12-07T06:28:44;94246.22;;;8.11;73.99
11692;BME280;33659;42.672;23.354;2022-12-07T06:31:10;94246.22;;;8.11;74.02
11692;BME280;33659;42.672;23.354;2022-12-07T06:33:37;94255.53;;;8.21;73.82
11692;BME280;33659;42.672;23.354;2022-12-07T06:36:06;94247.28;;;8.19;73.94
11692;BME280;33659;42.672;23.354;2022-12-07T06:38:33;94256.16;;;8.18;73.39
11692;BME280;33659;42.672;23.354;2022-12-07T06:40:59;94249.91;;;8.10;74.04
11692;BME280;33659;42.672;23.354;2022-12-07T06:43:26;94252.50;;;8.10;74.05
11692;BME280;33659;42.672;23.354;2022-12-07T06:45:53;94260.63;;;8.08;74.44
11692;BME280;33659;42.672;23.354;2022-12-07T06:48:20;94260.47;;;8.13;74.00
11692;BME280;33659;42.672;23.354;2022-12-07T06:50:47;94264.41;;;8.20;74.01
11692;BME280;33659;42.672;23.354;2022-12-07T06:53:15;94262.88;;;8.19;73.82
11692;BME280;33659;42.672;23.354;2022-12-07T06:55:42;94260.09;;;8.24;74.07
11692;BME280;33659;42.672;23.354;2022-12-07T06:58:09;94260.09;;;8.24;73.75
11692;BME280;33659;42.672;23.354;2022-12-07T07:00:35;94259.34;;;8.23;73.51
11692;BME280;33659;42.672;23.354;2022-12-07T07:03:02;94261.63;;;8.25;73.63
11692;BME280;33659;42.672;23.354;2022-12-07T07:05:29;94260.38;;;8.31;73.42
11692;BME280;33659;42.672;23.354;2022-12-07T07:07:55;94261.91;;;8.32;73.62
11692;BME280;33659;42.672;23.354;2022-12-07T07:10:23;94255.47;;;8.38;73.15
11692;BME280;33659;42.672;23.354;2022-12-07T07:12:50;94255.41;;;8.47;72.92
11692;BME280;33659;42.672;23.354;2022-12-07T07:15:17;94258.91;;;8.51;72.98
11692;BME280;33659;42.672;23.354;2022-12-07T07:17:43;94259.34;;;8.53;72.69
11692;BME280;33659;42.672;23.354;2022-12-07T07:20:11;94267.91;;;8.53;72.79
11692;BME280;33659;42.672;23.354;2022-12-07T07:22:38;94276.16;;;8.55;73.12
11692;BME280;33659;42.672;23.354;2022-12-07T07:25:05;94263.47;;;8.54;73.08
11692;BME280;33659;42.672;23.354;2022-12-07T07:27:33;94268.25;;;8.52;72.97
11692;BME280;33659;42.672;23.354;2022-12-07T07:30:00;94269.88;;;8.56;72.87
11692;BME280;33659;42.672;23.354;2022-12-07T07:32:26;94268.75;;;8.66;72.62
11692;BME280;33659;42.672;23.354;2022-12-07T07:34:53;94280.19;;;8.74;72.62
11692;BME280;33659;42.672;23.354;2022-12-07T07:37:20;94280.00;;;8.79;72.14
11692;BME280;33659;42.672;23.354;2022-12-07T07:39:46;94268.94;;;8.82;72.23
11692;BME280;33659;42.672;23.354;2022-12-07T07:42:13;94277.22;;;8.84;71.82
11692;BME280;33659;42.672;23.354;2022-12-07T07:44:41;94276.56;;;8.87;71.68
11692;BME280;33659;42.672;23.354;2022-12-07T07:47:08;94272.00;;;8.84;72.11
11692;BME280;33659;42.672;23.354;2022-12-07T07:49:34;94270.50;;;8.83;72.00
11692;BME280;33659;42.672;23.354;2022-12-07T07:52:01;94261.59;;;8.84;71.81
11692;BME280;33659;42.672;23.354;2022-12-07T07:54:28;94268.50;;;9.01;71.80
11692;BME280;33659;42.672;23.354;2022-12-07T07:56:55;94270.19;;;9.17;71.78
11692;BME280;33659;42.672;23.354;2022-12-07T07:59:21;94264.94;;;9.38;70.49
11692;BME280;33659;42.672;23.354;2022-12-07T08:01:49;94266.19;;;9.53;70.31
11692;BME280;33659;42.672;23.354;2022-12-07T08:04:16;94271.53;;;9.57;69.83
11692;BME280;33659;42.672;23.354;2022-12-07T08:06:43;94263.50;;;9.62;69.44
11692;BME280;33659;42.672;23.354;2022-12-07T08:09:10;94271.31;;;9.62;69.41
11692;BME280;33659;42.672;23.354;2022-12-07T08:11:36;94273.03;;;9.58;69.53
11692;BME280;33659;42.672;23.354;2022-12-07T08:14:03;94263.03;;;9.47;69.19
11692;BME280;33659;42.672;23.354;2022-12-07T08:16:30;94268.00;;;9.40;69.28
11692;BME280;33659;42.672;23.354;2022-12-07T08:18:58;94266.13;;;9.29;70.09
11692;BME280;33659;42.672;23.354;2022-12-07T08:21:24;94266.00;;;9.25;70.44
11692;BME280;33659;42.672;23.354;2022-12-07T08:23:51;94264.47;;;9.24;70.32
11692;BME280;33659;42.672;23.354;2022-12-07T08:26:18;94266.22;;;9.32;70.23
11692;BME280;33659;42.672;23.354;2022-12-07T08:28:44;94265.91;;;9.34;70.20
11692;BME280;33659;42.672;23.354;2022-12-07T08:31:13;94262.25;;;9.35;70.47
11692;BME280;33659;42.672;23.354;2022-12-07T08:33:41;94261.16;;;9.36;70.17
11692;BME280;33659;42.672;23.354;2022-12-07T08:36:13;94262.91;;;9.44;70.22
11692;BME280;33659;42.672;23.354;2022-12-07T08:38:41;94273.34;;;9.44;70.33
11692;BME280;33659;42.672;23.354;2022-12-07T08:41:08;94257.16;;;9.50;69.66
11692;BME280;33659;42.672;23.354;2022-12-07T08:43:35;94260.34;;;9.56;69.49
11692;BME280;33659;42.672;23.354;2022-12-07T08:46:07;94253.59;;;9.55;69.74
11692;BME280;33659;42.672;23.354;2022-12-07T08:48:37;94255.56;;;9.58;69.46
11692;BME280;33659;42.672;23.354;2022-12-07T08:51:05;94251.84;;;9.59;69.44
11692;BME280;33659;42.672;23.354;2022-12-07T08:53:34;94253.69;;;9.59;69.45
11692;BME280;33659;42.672;23.354;2022-12-07T08:56:02;94252.84;;;9.55;69.30
11692;BME280;33659;42.672;23.354;2022-12-07T08:58:30;94245.09;;;9.46;69.90
11692;BME280;33659;42.672;23.354;2022-12-07T09:00:56;94242.94;;;9.48;70.19
11692;BME280;33659;42.672;23.354;2022-12-07T09:03:23;94239.81;;;9.55;70.02
11692;BME280;33659;42.672;23.354;2022-12-07T09:05:50;94243.69;;;9.48;69.77
11692;BME280;33659;42.672;23.354;2022-12-07T09:08:17;94230.22;;;9.46;70.34
11692;BME280;33659;42.672;23.354;2022-12-07T09:10:45;94241.53;;;9.50;69.98
11692;BME280;33659;42.672;23.354;2022-12-07T09:13:13;94251.00;;;9.55;69.35
11692;BME280;33659;42.672;23.354;2022-12-07T09:15:40;94230.22;;;9.46;69.23
11692;BME280;33659;42.672;23.354;2022-12-07T09:18:06;94225.44;;;9.36;69.45
11692;BME280;33659;42.672;23.354;2022-12-07T09:20:33;94229.81;;;9.11;70.41
11692;BME280;33659;42.672;23.354;2022-12-07T09:23:00;94219.00;;;9.01;70.96
11692;BME280;33659;42.672;23.354;2022-12-07T09:25:27;94219.00;;;9.01;71.58
11692;BME280;33659;42.672;23.354;2022-12-07T09:27:58;94222.94;;;9.07;71.94
11692;BME280;33659;42.672;23.354;2022-12-07T09:30:25;94224.19;;;9.21;71.67
11692;BME280;33659;42.672;23.354;2022-12-07T09:32:52;94224.34;;;9.37;71.32
11692;BME280;33659;42.672;23.354;2022-12-07T09:35:19;94216.84;;;9.36;70.67
11692;BME280;33659;42.672;23.354;2022-12-07T09:37:46;94213.16;;;9.37;70.60
11692;BME280;33659;42.672;23.354;2022-12-07T09:40:13;94203.50;;;9.37;70.70
11692;BME280;33659;42.672;23.354;2022-12-07T09:42:43;94193.81;;;9.38;70.95
11692;BME280;33659;42.672;23.354;2022-12-07T09:45:15;94200.78;;;9.46;70.82
11692;BME280;33659;42.672;23.354;2022-12-07T09:47:43;94212.31;;;9.57;70.46
11692;BME280;33659;42.672;23.354;2022-12-07T09:50:14;94200.59;;;9.63;69.74
11692;BME280;33659;42.672;23.354;2022-12-07T09:52:42;94194.09;;;9.69;70.09
11692;BME280;33659;42.672;23.354;2022-12-07T09:55:12;94190.63;;;9.77;69.74
11692;BME280;33659;42.672;23.354;2022-12-07T09:57:40;94190.53;;;9.86;69.45
11692;BME280;33659;42.672;23.354;2022-12-07T10:00:14;94193.00;;;9.95;69.08
11692;BME280;33659;42.672;23.354;2022-12-07T10:02:42;94194.09;;;10.06;68.63
11692;BME280;33659;42.672;23.354;2022-12-07T10:05:13;94192.78;;;10.12;67.83
11692;BME280;33659;42.672;23.354;2022-12-07T10:07:40;94181.47;;;10.08;68.24
11692;BME280;33659;42.672;23.354;2022-12-07T10:10:14;94181.59;;;9.99;68.56
11692;BME280;33659;42.672;23.354;2022-12-07T10:12:58;94188.66;;;9.99;68.60
11692;BME280;33659;42.672;23.354;2022-12-07T10:15:42;94178.03;;;9.92;68.65
11692;BME280;33659;42.672;23.354;2022-12-07T10:18:25;94162.91;;;9.97;68.96
11692;BME280;33659;42.672;23.354;2022-12-07T10:21:10;94168.44;;;10.08;68.77
11692;BME280;33659;42.672;23.354;2022-12-07T10:23:39;94167.13;;;10.14;68.25
11692;BME280;33659;42.672;23.354;2022-12-07T10:26:38;94166.91;;;10.32;68.27
11692;BME280;33659;42.672;23.354;2022-12-07T10:29:14;94161.75;;;10.47;67.73
11692;BME280;33659;42.672;23.354;2022-12-07T10:31:45;94146.91;;;10.64;66.99
11692;BME280;33659;42.672;23.354;2022-12-07T10:34:20;94153.28;;;10.78;66.24
11692;BME280;33659;42.672;23.354;2022-12-07T10:36:49;94141.16;;;10.86;65.97
11692;BME280;33659;42.672;23.354;2022-12-07T10:39:17;94145.84;;;10.80;65.23
11692;BME280;33659;42.672;23.354;2022-12-07T10:41:54;94139.84;;;10.64;65.79
11692;BME280;33659;42.672;23.354;2022-12-07T10:44:24;94138.38;;;10.51;66.18
11692;BME280;33659;42.672;23.354;2022-12-07T10:47:08;94135.31;;;10.49;68.11
11692;BME280;33659;42.672;23.354;2022-12-07T10:49:55;94130.81;;;10.34;67.30
11692;BME280;33659;42.672;23.354;2022-12-07T10:55:27;94132.81;;;10.00;68.08
11692;BME280;33659;42.672;23.354;2022-12-07T10:58:13;94128.47;;;9.92;68.87
11692;BME280;33659;42.672;23.354;2022-12-07T11:00:46;94119.66;;;9.96;68.83
11692;BME280;33659;42.672;23.354;2022-12-07T11:03:31;94106.72;;;10.00;68.64
11692;BME280;33659;42.672;23.354;2022-12-07T11:06:13;94100.59;;;10.08;68.83
11692;BME280;33659;42.672;23.354;2022-12-07T11:08:54;94093.97;;;10.23;68.74
11692;BME280;33659;42.672;23.354;2022-12-07T11:11:30;94098.38;;;10.35;68.60
11692;BME280;33659;42.672;23.354;2022-12-07T11:14:05;94103.16;;;10.45;67.43
11692;BME280;33659;42.672;23.354;2022-12-07T11:16:49;94101.56;;;10.56;67.38
11692;BME280;33659;42.672;23.354;2022-12-07T11:19:41;94108.16;;;10.66;66.77
11692;BME280;33659;42.672;23.354;2022-12-07T11:22:19;94106.66;;;10.65;65.77
11692;BME280;33659;42.672;23.354;2022-12-07T11:24:56;94094.78;;;10.39;66.92
11692;BME280;33659;42.672;23.354;2022-12-07T11:27:35;94084.81;;;10.29;67.33
11692;BME280;33659;42.672;23.354;2022-12-07T11:30:13;94087.09;;;10.30;67.49
11692;BME280;33659;42.672;23.354;2022-12-07T11:32:49;94076.91;;;10.25;67.75
11692;BME280;33659;42.672;23.354;2022-12-07T11:35:24;94067.63;;;10.28;67.53
11692;BME280;33659;42.672;23.354;2022-12-07T11:37:58;94066.78;;;10.24;67.39
11692;BME280;33659;42.672;23.354;2022-12-07T11:40:29;94063.63;;;10.30;67.86
11692;BME280;33659;42.672;23.354;2022-12-07T11:43:03;94063.81;;;10.38;67.84
11692;BME280;33659;42.672;23.354;2022-12-07T11:45:33;94060.28;;;10.46;66.97
11692;BME280;33659;42.672;23.354;2022-12-07T11:48:02;94065.28;;;10.51;66.95
11692;BME280;33659;42.672;23.354;2022-12-07T11:50:36;94062.91;;;10.46;66.84
11692;BME280;33659;42.672;23.354;2022-12-07T11:53:10;94061.56;;;10.52;66.88
11692;BME280;33659;42.672;23.354;2022-12-07T11:55:43;94051.66;;;10.57;66.82
11692;BME280;33659;42.672;23.354;2022-12-07T11:58:35;94050.84;;;10.85;66.90
11692;BME280;33659;42.672;23.354;2022-12-07T12:01:14;94033.97;;;10.98;66.18
11692;BME280;33659;42.672;23.354;2022-12-07T12:03:44;94054.28;;;11.36;65.01
11692;BME280;33659;42.672;23.354;2022-12-07T12:06:12;94050.97;;;11.55;64.36
11692;BME280;33659;42.672;23.354;2022-12-07T12:08:43;94047.06;;;11.65;63.87
11692;BME280;33659;42.672;23.354;2022-12-07T12:11:21;94046.13;;;11.73;62.95
11692;BME280;33659;42.672;23.354;2022-12-07T12:14:05;94037.91;;;11.90;62.81
11692;BME280;33659;42.672;23.354;2022-12-07T12:17:00;94032.97;;;12.05;62.34
11692;BME280;33659;42.672;23.354;2022-12-07T12:19:36;94025.69;;;12.14;62.13
11692;BME280;33659;42.672;23.354;2022-12-07T12:22:12;94026.38;;;12.30;61.00
11692;BME280;33659;42.672;23.354;2022-12-07T12:24:42;94031.56;;;12.92;61.10
11692;BME280;33659;42.672;23.354;2022-12-07T12:27:18;94023.47;;;14.40;56.96
11692;BME280;33659;42.672;23.354;2022-12-07T12:29:53;94022.09;;;15.35;52.95
11692;BME280;33659;42.672;23.354;2022-12-07T12:32:22;94016.16;;;15.45;52.31
11692;BME280;33659;42.672;23.354;2022-12-07T12:35:02;93999.03;;;15.69;51.83
11692;BME280;33659;42.672;23.354;2022-12-07T12:37:47;94011.94;;;15.95;51.03
11692;BME280;33659;42.672;23.354;2022-12-07T12:40:42;94011.25;;;16.06;50.71
11692;BME280;33659;42.672;23.354;2022-12-07T12:43:48;93996.94;;;16.03;50.71
11692;BME280;33659;42.672;23.354;2022-12-07T12:46:37;93985.00;;;16.34;50.03
11692;BME280;33659;42.672;23.354;2022-12-07T12:49:32;93990.03;;;17.18;48.47
11692;BME280;33659;42.672;23.354;2022-12-07T12:52:00;93994.19;;;18.53;45.63
11692;BME280;33659;42.672;23.354;2022-12-07T12:54:31;93999.19;;;20.23;41.94
11692;BME280;33659;42.672;23.354;2022-12-07T12:57:03;93992.56;;;20.69;39.54
11692;BME280;33659;42.672;23.354;2022-12-07T12:59:32;93979.28;;;21.46;38.43
11692;BME280;33659;42.672;23.354;2022-12-07T13:02:16;93990.97;;;21.72;36.23
11692;BME280;33659;42.672;23.354;2022-12-07T13:04:52;94000.41;;;21.53;37.09
11692;BME280;33659;42.672;23.354;2022-12-07T13:07:52;94001.66;;;21.69;36.61
11692;BME280;33659;42.672;23.354;2022-12-07T13:10:27;93994.00;;;22.14;36.17
11692;BME280;33659;42.672;23.354;2022-12-07T13:12:56;93994.03;;;22.50;35.35
11692;BME280;33659;42.672;23.354;2022-12-07T13:15:37;93996.59;;;22.74;35.17
11692;BME280;33659;42.672;23.354;2022-12-07T13:18:23;93992.19;;;22.07;35.49
11692;BME280;33659;42.672;23.354;2022-12-07T13:20:53;93994.19;;;20.86;37.81